sensor_id;sensor_type;location;lat;lon;timestamp;temperature;humidity
21612;DHT22;47005;52.292;13.452;2023-04-08T00:00:36;7.70;99.90
21612;DHT22;47005;52.292;13.452;2023-04-08T00:03:02;7.80;99.90
21612;DHT22;47005;52.292;13.452;2023-04-08T00:05:28;7.70;99.90
21612;DHT22;47005;52.292;13.452;2023-04-08T00:07:53;7.80;99.90
21612;DHT22;47005;52.292;13.452;2023-04-08T00:10:19;7.80;99.90
21612;DHT22;47005;52.292;13.452;2023-04-08T00:12:46;7.80;99.90
21612;DHT22;47005;52.292;13.452;2023-04-08T00:15:12;7.80;99.90
21612;DHT22;47005;52.292;13.452;2023-04-08T00:17:38;7.80;99.90
21612;DHT22;47005;52.292;13.452;2023-04-08T00:20:04;7.80;99.90
21612;DHT22;47005;52.292;13.452;2023-04-08T00:22:30;7.80;99.90
21612;DHT22;47005;52.292;13.452;2023-04-08T00:24:57;7.80;99.90
21612;DHT22;47005;52.292;13.452;2023-04-08T00:27:22;7.80;99.90
21612;DHT22;47005;52.292;13.452;2023-04-08T00:29:50;7.80;99.90
21612;DHT22;47005;52.292;13.452;2023-04-08T00:32:16;7.80;99.90
21612;DHT22;47005;52.292;13.452;2023-04-08T00:34:41;7.80;99.90
21612;DHT22;47005;52.292;13.452;2023-04-08T00:37:07;7.80;99.90
21612;DHT22;47005;52.292;13.452;2023-04-08T00:39:33;7.80;99.90
21612;DHT22;47005;52.292;13.452;2023-04-08T00:41:59;7.80;99.90
21612;DHT22;47005;52.292;13.452;2023-04-08T00:44:26;7.80;99.90
21612;DHT22;47005;52.292;13.452;2023-04-08T00:46:52;7.80;99.90
21612;DHT22;47005;52.292;13.452;2023-04-08T00:49:18;7.80;99.90
21612;DHT22;47005;52.292;13.452;2023-04-08T00:51:43;7.80;99.90
21612;DHT22;47005;52.292;13.452;2023-04-08T00:54:09;7.80;99.90
21612;DHT22;47005;52.292;13.452;2023-04-08T00:56:35;7.80;99.90
21612;DHT22;47005;52.292;13.452;2023-04-08T00:59:02;7.80;99.90
21612;DHT22;47005;52.292;13.452;2023-04-08T01:05:00;7.80;99.90
21612;DHT22;47005;52.292;13.452;2023-04-08T01:07:46;7.80;99.90
21612;DHT22;47005;52.292;13.452;2023-04-08T01:10:19;7.80;99.90
21612;DHT22;47005;52.292;13.452;2023-04-08T01:12:53;7.80;99.90
21612;DHT22;47005;52.292;13.452;2023-04-08T01:15:28;7.80;99.90
21612;DHT22;47005;52.292;13.452;2023-04-08T01:17:56;7.70;99.90
21612;DHT22;47005;52.292;13.452;2023-04-08T01:20:24;7.80;99.90
21612;DHT22;47005;52.292;13.452;2023-04-08T01:28:19;7.70;99.90
21612;DHT22;47005;52.292;13.452;2023-04-08T01:30:45;7.70;99.90
21612;DHT22;47005;52.292;13.452;2023-04-08T01:33:14;7.70;99.90
21612;DHT22;47005;52.292;13.452;2023-04-08T01:35:41;7.70;99.90
21612;DHT22;47005;52.292;13.452;2023-04-08T01:38:08;7.70;99.90
21612;DHT22;47005;52.292;13.452;2023-04-08T01:40:37;7.70;99.90
21612;DHT22;47005;52.292;13.452;2023-04-08T01:43:05;7.70;99.90
21612;DHT22;47005;52.292;13.452;2023-04-08T01:45:32;7.70;99.90
21612;DHT22;47005;52.292;13.452;2023-04-08T01:47:59;7.70;99.90
21612;DHT22;47005;52.292;13.452;2023-04-08T01:50:26;7.70;99.90
21612;DHT22;47005;52.292;13.452;2023-04-08T01:52:53;7.70;99.90
21612;DHT22;47005;52.292;13.452;2023-04-08T01:55:19;7.70;99.90
21612;DHT22;47005;52.292;13.452;2023-04-08T01:57:48;7.70;99.90
21612;DHT22;47005;52.292;13.452;2023-04-08T02:00:20;7.70;99.90
21612;DHT22;47005;52.292;13.452;2023-04-08T02:02:49;7.70;99.90
21612;DHT22;47005;52.292;13.452;2023-04-08T02:05:15;7.80;99.90
21612;DHT22;47005;52.292;13.452;2023-04-08T02:07:41;7.80;99.90
21612;DHT22;47005;52.292;13.452;2023-04-08T02:10:07;7.80;99.90
21612;DHT22;47005;52.292;13.452;2023-04-08T02:12:35;7.80;99.90
21612;DHT22;47005;52.292;13.452;2023-04-08T02:15:01;7.80;99.90
21612;DHT22;47005;52.292;13.452;2023-04-08T02:17:55;7.70;99.90
21612;DHT22;47005;52.292;13.452;2023-04-08T02:20:29;7.70;99.90
21612;DHT22;47005;52.292;13.452;2023-04-08T02:23:20;7.80;99.90
21612;DHT22;47005;52.292;13.452;2023-04-08T02:25:52;7.80;99.90
21612;DHT22;47005;52.292;13.452;2023-04-08T02:28:20;7.80;99.90
21612;DHT22;47005;52.292;13.452;2023-04-08T02:30:49;7.70;99.90
21612;DHT22;47005;52.292;13.452;2023-04-08T02:33:18;7.70;99.90
21612;DHT22;47005;52.292;13.452;2023-04-08T02:35:44;7.70;99.90
21612;DHT22;47005;52.292;13.452;2023-04-08T02:38:11;7.80;99.90
21612;DHT22;47005;52.292;13.452;2023-04-08T02:40:37;7.70;99.90
21612;DHT22;47005;52.292;13.452;2023-04-08T02:43:03;7.70;99.90
21612;DHT22;47005;52.292;13.452;2023-04-08T02:45:37;7.80;99.90
21612;DHT22;47005;52.292;13.452;2023-04-08T02:48:03;7.70;99.90
21612;DHT22;47005;52.292;13.452;2023-04-08T02:50:30;7.70;99.90
21612;DHT22;47005;52.292;13.452;2023-04-08T02:52:56;7.70;99.90
21612;DHT22;47005;52.292;13.452;2023-04-08T02:55:21;7.70;99.90
21612;DHT22;47005;52.292;13.452;2023-04-08T02:57:47;7.70;99.90
21612;DHT22;47005;52.292;13.452;2023-04-08T03:00:13;7.70;99.90
21612;DHT22;47005;52.292;13.452;2023-04-08T03:02:39;7.70;99.90
21612;DHT22;47005;52.292;13.452;2023-04-08T03:05:05;7.70;99.90
21612;DHT22;47005;52.292;13.452;2023-04-08T03:07:32;7.70;99.90
21612;DHT22;47005;52.292;13.452;2023-04-08T03:09:57;7.70;99.90
21612;DHT22;47005;52.292;13.452;2023-04-08T03:12:23;7.70;99.90
21612;DHT22;47005;52.292;13.452;2023-04-08T03:14:49;7.70;99.90
21612;DHT22;47005;52.292;13.452;2023-04-08T03:17:15;7.70;99.90
21612;DHT22;47005;52.292;13.452;2023-04-08T03:19:40;7.70;99.90
21612;DHT22;47005;52.292;13.452;2023-04-08T03:22:06;7.70;99.90
21612;DHT22;47005;52.292;13.452;2023-04-08T03:24:34;7.70;99.90
21612;DHT22;47005;52.292;13.452;2023-04-08T03:27:00;7.70;99.90
21612;DHT22;47005;52.292;13.452;2023-04-08T03:29:25;7.60;99.90
21612;DHT22;47005;52.292;13.452;2023-04-08T03:31:51;7.70;99.90
21612;DHT22;47005;52.292;13.452;2023-04-08T03:34:17;7.70;99.90
21612;DHT22;47005;52.292;13.452;2023-04-08T03:36:43;7.70;99.90
21612;DHT22;47005;52.292;13.452;2023-04-08T03:39:08;7.70;99.90
21612;DHT22;47005;52.292;13.452;2023-04-08T03:41:35;7.60;99.90
21612;DHT22;47005;52.292;13.452;2023-04-08T03:44:01;7.70;99.90
21612;DHT22;47005;52.292;13.452;2023-04-08T03:46:26;7.70;99.90
21612;DHT22;47005;52.292;13.452;2023-04-08T03:48:52;7.60;99.90
21612;DHT22;47005;52.292;13.452;2023-04-08T03:51:17;7.70;99.90
21612;DHT22;47005;52.292;13.452;2023-04-08T03:53:43;7.70;99.90
21612;DHT22;47005;52.292;13.452;2023-04-08T03:56:09;7.70;99.90
21612;DHT22;47005;52.292;13.452;2023-04-08T03:58:35;7.70;99.90
21612;DHT22;47005;52.292;13.452;2023-04-08T04:01:00;7.70;99.90
21612;DHT22;47005;52.292;13.452;2023-04-08T04:03:26;7.70;99.90
21612;DHT22;47005;52.292;13.452;2023-04-08T04:05:55;7.70;99.90
21612;DHT22;47005;52.292;13.452;2023-04-08T04:08:20;7.70;99.90
21612;DHT22;47005;52.292;13.452;2023-04-08T04:10:46;7.70;99.90
21612;DHT22;47005;52.292;13.452;2023-04-08T04:13:12;7.70;99.90
21612;DHT22;47005;52.292;13.452;2023-04-08T04:15:38;7.70;99.90
21612;DHT22;47005;52.292;13.452;2023-04-08T04:18:05;7.70;99.90
21612;DHT22;47005;52.292;13.452;2023-04-08T04:20:30;7.70;99.90
21612;DHT22;47005;52.292;13.452;2023-04-08T04:22:56;7.70;99.90
21612;DHT22;47005;52.292;13.452;2023-04-08T04:25:22;7.70;99.90
21612;DHT22;47005;52.292;13.452;2023-04-08T04:27:50;7.70;99.90
21612;DHT22;47005;52.292;13.452;2023-04-08T04:30:16;7.70;99.90
21612;DHT22;47005;52.292;13.452;2023-04-08T04:32:43;7.70;99.90
21612;DHT22;47005;52.292;13.452;2023-04-08T04:35:10;7.70;99.90
21612;DHT22;47005;52.292;13.452;2023-04-08T04:37:35;7.60;99.90
21612;DHT22;47005;52.292;13.452;2023-04-08T04:40:06;7.60;99.90
21612;DHT22;47005;52.292;13.452;2023-04-08T04:42:32;7.60;99.90
21612;DHT22;47005;52.292;13.452;2023-04-08T04:44:58;7.60;99.90
21612;DHT22;47005;52.292;13.452;2023-04-08T04:47:24;7.60;99.90
21612;DHT22;47005;52.292;13.452;2023-04-08T04:49:50;7.60;99.90
21612;DHT22;47005;52.292;13.452;2023-04-08T04:52:19;7.60;99.90
21612;DHT22;47005;52.292;13.452;2023-04-08T04:54:44;7.60;99.90
21612;DHT22;47005;52.292;13.452;2023-04-08T04:57:10;7.60;99.90
21612;DHT22;47005;52.292;13.452;2023-04-08T04:59:36;7.70;99.90
21612;DHT22;47005;52.292;13.452;2023-04-08T05:02:02;7.60;99.90
21612;DHT22;47005;52.292;13.452;2023-04-08T05:04:28;7.60;99.90
21612;DHT22;47005;52.292;13.452;2023-04-08T05:06:53;7.60;99.90
21612;DHT22;47005;52.292;13.452;2023-04-08T05:09:19;7.60;99.90
21612;DHT22;47005;52.292;13.452;2023-04-08T05:11:45;7.70;99.90
21612;DHT22;47005;52.292;13.452;2023-04-08T05:14:10;7.60;99.90
21612;DHT22;47005;52.292;13.452;2023-04-08T05:16:36;7.60;99.90
21612;DHT22;47005;52.292;13.452;2023-04-08T05:19:03;7.70;99.90
21612;DHT22;47005;52.292;13.452;2023-04-08T05:21:28;7.70;99.90
21612;DHT22;47005;52.292;13.452;2023-04-08T05:23:54;7.70;99.90
21612;DHT22;47005;52.292;13.452;2023-04-08T05:26:20;7.70;99.90
21612;DHT22;47005;52.292;13.452;2023-04-08T05:28:49;7.70;99.90
21612;DHT22;47005;52.292;13.452;2023-04-08T05:31:16;7.70;99.90
21612;DHT22;47005;52.292;13.452;2023-04-08T05:33:41;7.70;99.90
21612;DHT22;47005;52.292;13.452;2023-04-08T05:36:07;7.70;99.90
21612;DHT22;47005;52.292;13.452;2023-04-08T05:38:33;7.70;99.90
21612;DHT22;47005;52.292;13.452;2023-04-08T05:40:58;7.70;99.90
21612;DHT22;47005;52.292;13.452;2023-04-08T05:43:24;7.70;99.90
21612;DHT22;47005;52.292;13.452;2023-04-08T05:45:50;7.70;99.90
21612;DHT22;47005;52.292;13.452;2023-04-08T05:48:15;7.70;99.90
21612;DHT22;47005;52.292;13.452;2023-04-08T05:50:41;7.80;99.90
21612;DHT22;47005;52.292;13.452;2023-04-08T05:53:08;7.70;99.90
21612;DHT22;47005;52.292;13.452;2023-04-08T05:55:34;7.70;99.90
21612;DHT22;47005;52.292;13.452;2023-04-08T05:58:00;7.80;99.90
21612;DHT22;47005;52.292;13.452;2023-04-08T06:00:25;7.80;99.90
21612;DHT22;47005;52.292;13.452;2023-04-08T06:02:51;7.80;99.90
21612;DHT22;47005;52.292;13.452;2023-04-08T06:05:17;7.80;99.90
21612;DHT22;47005;52.292;13.452;2023-04-08T06:07:43;7.80;99.90
21612;DHT22;47005;52.292;13.452;2023-04-08T06:10:09;7.80;99.90
21612;DHT22;47005;52.292;13.452;2023-04-08T06:12:36;7.80;99.90
21612;DHT22;47005;52.292;13.452;2023-04-08T06:15:03;7.80;99.90
21612;DHT22;47005;52.292;13.452;2023-04-08T06:17:29;7.90;99.90
21612;DHT22;47005;52.292;13.452;2023-04-08T06:19:55;7.90;99.90
21612;DHT22;47005;52.292;13.452;2023-04-08T06:22:20;7.90;99.90
21612;DHT22;47005;52.292;13.452;2023-04-08T06:24:47;7.90;99.90
21612;DHT22;47005;52.292;13.452;2023-04-08T06:27:13;7.90;99.90
21612;DHT22;47005;52.292;13.452;2023-04-08T06:29:39;7.90;99.90
21612;DHT22;47005;52.292;13.452;2023-04-08T06:32:05;8.00;99.90
21612;DHT22;47005;52.292;13.452;2023-04-08T06:34:31;8.00;99.90
21612;DHT22;47005;52.292;13.452;2023-04-08T06:36:57;8.00;99.90
21612;DHT22;47005;52.292;13.452;2023-04-08T06:39:23;8.00;99.90
21612;DHT22;47005;52.292;13.452;2023-04-08T06:41:48;8.00;99.90
21612;DHT22;47005;52.292;13.452;2023-04-08T06:44:14;8.10;99.90
21612;DHT22;47005;52.292;13.452;2023-04-08T06:46:40;8.10;99.90
21612;DHT22;47005;52.292;13.452;2023-04-08T06:49:05;8.10;99.90
21612;DHT22;47005;52.292;13.452;2023-04-08T06:51:31;8.10;99.90
21612;DHT22;47005;52.292;13.452;2023-04-08T06:53:57;8.10;99.90
21612;DHT22;47005;52.292;13.452;2023-04-08T06:56:23;8.10;99.90
21612;DHT22;47005;52.292;13.452;2023-04-08T06:58:51;8.20;99.90
21612;DHT22;47005;52.292;13.452;2023-04-08T07:01:16;8.20;99.90
21612;DHT22;47005;52.292;13.452;2023-04-08T07:03:42;8.20;99.90
21612;DHT22;47005;52.292;13.452;2023-04-08T07:06:08;8.20;99.90
21612;DHT22;47005;52.292;13.452;2023-04-08T07:08:34;8.20;99.90
21612;DHT22;47005;52.292;13.452;2023-04-08T07:11:00;8.30;99.90
21612;DHT22;47005;52.292;13.452;2023-04-08T07:13:26;8.20;99.90
21612;DHT22;47005;52.292;13.452;2023-04-08T07:15:52;8.30;99.90
21612;DHT22;47005;52.292;13.452;2023-04-08T07:18:18;8.30;99.90
21612;DHT22;47005;52.292;13.452;2023-04-08T07:20:50;8.30;99.90
21612;DHT22;47005;52.292;13.452;2023-04-08T07:23:16;8.30;99.90
21612;DHT22;47005;52.292;13.452;2023-04-08T07:25:41;8.30;99.90
21612;DHT22;47005;52.292;13.452;2023-04-08T07:28:07;8.30;99.90
21612;DHT22;47005;52.292;13.452;2023-04-08T07:30:32;8.40;99.90
21612;DHT22;47005;52.292;13.452;2023-04-08T07:33:01;8.40;99.90
21612;DHT22;47005;52.292;13.452;2023-04-08T07:35:27;8.40;99.90
21612;DHT22;47005;52.292;13.452;2023-04-08T07:37:52;8.40;99.90
21612;DHT22;47005;52.292;13.452;2023-04-08T07:40:19;8.40;99.90
21612;DHT22;47005;52.292;13.452;2023-04-08T07:42:45;8.40;99.90
21612;DHT22;47005;52.292;13.452;2023-04-08T07:45:11;8.50;99.90
21612;DHT22;47005;52.292;13.452;2023-04-08T07:47:37;8.50;99.90
21612;DHT22;47005;52.292;13.452;2023-04-08T07:50:03;8.50;99.90
21612;DHT22;47005;52.292;13.452;2023-04-08T07:52:32;8.60;99.90
21612;DHT22;47005;52.292;13.452;2023-04-08T07:54:58;8.60;99.90
21612;DHT22;47005;52.292;13.452;2023-04-08T07:57:25;8.60;99.90
21612;DHT22;47005;52.292;13.452;2023-04-08T07:59:51;8.70;99.90
21612;DHT22;47005;52.292;13.452;2023-04-08T08:02:16;8.70;99.90
21612;DHT22;47005;52.292;13.452;2023-04-08T08:04:42;8.70;99.90
21612;DHT22;47005;52.292;13.452;2023-04-08T08:07:08;8.80;99.90
21612;DHT22;47005;52.292;13.452;2023-04-08T08:09:33;8.80;99.90
21612;DHT22;47005;52.292;13.452;2023-04-08T08:11:59;8.80;99.90
21612;DHT22;47005;52.292;13.452;2023-04-08T08:14:25;8.90;99.90
21612;DHT22;47005;52.292;13.452;2023-04-08T08:16:51;8.90;99.90
21612;DHT22;47005;52.292;13.452;2023-04-08T08:19:19;8.90;99.90
21612;DHT22;47005;52.292;13.452;2023-04-08T08:21:44;9.00;99.90
21612;DHT22;47005;52.292;13.452;2023-04-08T08:24:10;9.00;99.90
21612;DHT22;47005;52.292;13.452;2023-04-08T08:26:36;9.00;99.90
21612;DHT22;47005;52.292;13.452;2023-04-08T08:29:03;9.00;99.90
21612;DHT22;47005;52.292;13.452;2023-04-08T08:31:28;9.10;99.90
21612;DHT22;47005;52.292;13.452;2023-04-08T08:33:54;9.10;99.90
21612;DHT22;47005;52.292;13.452;2023-04-08T08:36:19;9.10;99.90
21612;DHT22;47005;52.292;13.452;2023-04-08T08:38:46;9.20;99.90
21612;DHT22;47005;52.292;13.452;2023-04-08T08:41:11;9.20;99.90
21612;DHT22;47005;52.292;13.452;2023-04-08T08:43:37;9.30;99.90
21612;DHT22;47005;52.292;13.452;2023-04-08T08:46:03;9.30;99.90
21612;DHT22;47005;52.292;13.452;2023-04-08T08:48:30;9.30;99.90
21612;DHT22;47005;52.292;13.452;2023-04-08T08:50:56;9.40;99.90
21612;DHT22;47005;52.292;13.452;2023-04-08T08:53:28;9.40;99.90
21612;DHT22;47005;52.292;13.452;2023-04-08T08:55:54;9.40;99.90
21612;DHT22;47005;52.292;13.452;2023-04-08T08:58:25;9.40;99.90
21612;DHT22;47005;52.292;13.452;2023-04-08T09:00:51;9.40;99.90
21612;DHT22;47005;52.292;13.452;2023-04-08T09:03:23;9.50;99.90
21612;DHT22;47005;52.292;13.452;2023-04-08T09:05:54;9.50;99.90
21612;DHT22;47005;52.292;13.452;2023-04-08T09:08:31;9.50;99.90
21612;DHT22;47005;52.292;13.452;2023-04-08T09:11:17;9.50;99.90
21612;DHT22;47005;52.292;13.452;2023-04-08T09:13:44;9.50;99.90
21612;DHT22;47005;52.292;13.452;2023-04-08T09:16:12;9.50;99.90
21612;DHT22;47005;52.292;13.452;2023-04-08T09:18:39;9.50;99.90
21612;DHT22;47005;52.292;13.452;2023-04-08T09:21:07;9.60;99.90
21612;DHT22;47005;52.292;13.452;2023-04-08T09:23:44;9.60;99.90
21612;DHT22;47005;52.292;13.452;2023-04-08T09:26:14;9.60;99.90
21612;DHT22;47005;52.292;13.452;2023-04-08T09:28:42;9.70;99.90
21612;DHT22;47005;52.292;13.452;2023-04-08T09:31:21;9.70;99.90
21612;DHT22;47005;52.292;13.452;2023-04-08T09:33:55;9.80;99.90
21612;DHT22;47005;52.292;13.452;2023-04-08T09:36:21;9.80;99.90
21612;DHT22;47005;52.292;13.452;2023-04-08T09:38:47;9.80;99.90
21612;DHT22;47005;52.292;13.452;2023-04-08T09:41:15;9.90;99.90
21612;DHT22;47005;52.292;13.452;2023-04-08T09:43:43;10.00;99.90
21612;DHT22;47005;52.292;13.452;2023-04-08T09:49:16;10.00;99.90
21612;DHT22;47005;52.292;13.452;2023-04-08T09:52:06;10.10;99.90
21612;DHT22;47005;52.292;13.452;2023-04-08T09:54:52;10.10;99.90
21612;DHT22;47005;52.292;13.452;2023-04-08T09:57:28;10.20;99.90
21612;DHT22;47005;52.292;13.452;2023-04-08T10:00:15;10.30;99.90
21612;DHT22;47005;52.292;13.452;2023-04-08T10:03:03;10.30;99.90
21612;DHT22;47005;52.292;13.452;2023-04-08T10:05:30;10.40;99.90
21612;DHT22;47005;52.292;13.452;2023-04-08T10:07:57;10.40;99.90
21612;DHT22;47005;52.292;13.452;2023-04-08T10:10:24;10.50;99.90
21612;DHT22;47005;52.292;13.452;2023-04-08T10:12:51;10.50;99.90
21612;DHT22;47005;52.292;13.452;2023-04-08T10:15:29;10.50;99.90
21612;DHT22;47005;52.292;13.452;2023-04-08T10:23:06;10.70;99.90
21612;DHT22;47005;52.292;13.452;2023-04-08T10:25:37;10.70;99.90
21612;DHT22;47005;52.292;13.452;2023-04-08T10:30:49;10.70;99.90
21612;DHT22;47005;52.292;13.452;2023-04-08T10:33:23;10.70;99.90
21612;DHT22;47005;52.292;13.452;2023-04-08T10:35:59;10.70;99.90
21612;DHT22;47005;52.292;13.452;2023-04-08T10:38:27;10.70;99.90
21612;DHT22;47005;52.292;13.452;2023-04-08T10:40:54;10.70;99.90
21612;DHT22;47005;52.292;13.452;2023-04-08T10:43:19;10.70;99.90
21612;DHT22;47005;52.292;13.452;2023-04-08T10:45:45;10.70;99.90
21612;DHT22;47005;52.292;13.452;2023-04-08T10:48:22;10.80;99.90
21612;DHT22;47005;52.292;13.452;2023-04-08T10:53:31;10.90;99.90
21612;DHT22;47005;52.292;13.452;2023-04-08T10:56:11;10.90;99.90
21612;DHT22;47005;52.292;13.452;2023-04-08T10:58:53;10.90;99.90
21612;DHT22;47005;52.292;13.452;2023-04-08T11:01:23;10.90;99.90
21612;DHT22;47005;52.292;13.452;2023-04-08T11:03:50;10.90;99.90
21612;DHT22;47005;52.292;13.452;2023-04-08T11:06:16;10.90;99.90
21612;DHT22;47005;52.292;13.452;2023-04-08T11:08:42;11.00;99.90
21612;DHT22;47005;52.292;13.452;2023-04-08T11:11:09;10.90;99.90
21612;DHT22;47005;52.292;13.452;2023-04-08T11:13:41;11.00;99.90
21612;DHT22;47005;52.292;13.452;2023-04-08T11:16:07;11.00;99.90
21612;DHT22;47005;52.292;13.452;2023-04-08T11:18:42;11.10;99.90
21612;DHT22;47005;52.292;13.452;2023-04-08T11:21:09;11.10;99.90
21612;DHT22;47005;52.292;13.452;2023-04-08T11:23:35;11.20;99.90
21612;DHT22;47005;52.292;13.452;2023-04-08T11:26:01;11.20;99.90
21612;DHT22;47005;52.292;13.452;2023-04-08T11:28:28;11.30;99.90
21612;DHT22;47005;52.292;13.452;2023-04-08T11:30:54;11.40;99.90
21612;DHT22;47005;52.292;13.452;2023-04-08T11:33:20;11.40;99.90
21612;DHT22;47005;52.292;13.452;2023-04-08T11:35:50;11.40;99.90
21612;DHT22;47005;52.292;13.452;2023-04-08T11:38:16;11.50;99.90
21612;DHT22;47005;52.292;13.452;2023-04-08T11:40:53;11.50;99.90
21612;DHT22;47005;52.292;13.452;2023-04-08T11:43:18;11.50;99.90
21612;DHT22;47005;52.292;13.452;2023-04-08T11:45:44;11.60;99.90
21612;DHT22;47005;52.292;13.452;2023-04-08T11:48:11;11.60;99.90
21612;DHT22;47005;52.292;13.452;2023-04-08T11:50:38;11.60;99.90
21612;DHT22;47005;52.292;13.452;2023-04-08T11:53:23;11.70;99.90
21612;DHT22;47005;52.292;13.452;2023-04-08T11:55:49;11.70;99.90
21612;DHT22;47005;52.292;13.452;2023-04-08T11:58:15;11.80;99.90
21612;DHT22;47005;52.292;13.452;2023-04-08T12:00:41;11.80;99.90
21612;DHT22;47005;52.292;13.452;2023-04-08T12:03:08;11.90;99.90
21612;DHT22;47005;52.292;13.452;2023-04-08T12:05:34;11.90;99.90
21612;DHT22;47005;52.292;13.452;2023-04-08T12:08:00;11.90;99.90
21612;DHT22;47005;52.292;13.452;2023-04-08T12:10:25;12.00;99.90
21612;DHT22;47005;52.292;13.452;2023-04-08T12:12:51;12.00;99.90
21612;DHT22;47005;52.292;13.452;2023-04-08T12:15:17;12.00;99.90
21612;DHT22;47005;52.292;13.452;2023-04-08T12:17:43;12.10;99.90
21612;DHT22;47005;52.292;13.452;2023-04-08T12:20:09;12.10;99.90
21612;DHT22;47005;52.292;13.452;2023-04-08T12:22:36;12.10;99.90
21612;DHT22;47005;52.292;13.452;2023-04-08T12:25:02;12.10;99.90
21612;DHT22;47005;52.292;13.452;2023-04-08T12:27:29;12.10;99.70
21612;DHT22;47005;52.292;13.452;2023-04-08T12:29:55;12.10;99.80
21612;DHT22;47005;52.292;13.452;2023-04-08T12:32:21;12.10;99.90
21612;DHT22;47005;52.292;13.452;2023-04-08T12:34:47;12.20;99.90
21612;DHT22;47005;52.292;13.452;2023-04-08T12:37:12;12.20;99.50
21612;DHT22;47005;52.292;13.452;2023-04-08T12:39:38;12.10;99.90
21612;DHT22;47005;52.292;13.452;2023-04-08T12:42:04;12.20;99.90
21612;DHT22;47005;52.292;13.452;2023-04-08T12:44:29;12.20;99.70
21612;DHT22;47005;52.292;13.452;2023-04-08T12:46:55;12.20;99.20
21612;DHT22;47005;52.292;13.452;2023-04-08T12:49:23;12.20;99.10
21612;DHT22;47005;52.292;13.452;2023-04-08T12:51:48;12.30;99.90
21612;DHT22;47005;52.292;13.452;2023-04-08T12:54:14;12.30;99.70
21612;DHT22;47005;52.292;13.452;2023-04-08T12:56:41;12.30;99.70
21612;DHT22;47005;52.292;13.452;2023-04-08T12:59:07;12.30;98.60
21612;DHT22;47005;52.292;13.452;2023-04-08T13:01:33;12.30;99.40
21612;DHT22;47005;52.292;13.452;2023-04-08T13:03:59;12.40;99.50
21612;DHT22;47005;52.292;13.452;2023-04-08T13:06:24;12.50;99.70
21612;DHT22;47005;52.292;13.452;2023-04-08T13:08:51;12.50;99.30
21612;DHT22;47005;52.292;13.452;2023-04-08T13:11:16;12.60;98.30
21612;DHT22;47005;52.292;13.452;2023-04-08T13:13:42;12.70;97.70
21612;DHT22;47005;52.292;13.452;2023-04-08T13:16:11;12.70;97.70
21612;DHT22;47005;52.292;13.452;2023-04-08T13:18:38;12.80;97.80
21612;DHT22;47005;52.292;13.452;2023-04-08T13:21:05;12.90;97.40
21612;DHT22;47005;52.292;13.452;2023-04-08T13:23:31;13.10;97.90
21612;DHT22;47005;52.292;13.452;2023-04-08T13:26:00;13.10;96.20
21612;DHT22;47005;52.292;13.452;2023-04-08T13:28:25;13.20;96.50
21612;DHT22;47005;52.292;13.452;2023-04-08T13:30:51;13.40;95.50
21612;DHT22;47005;52.292;13.452;2023-04-08T13:33:18;13.50;95.20
21612;DHT22;47005;52.292;13.452;2023-04-08T13:35:43;13.60;94.90
21612;DHT22;47005;52.292;13.452;2023-04-08T13:38:09;13.80;95.50
21612;DHT22;47005;52.292;13.452;2023-04-08T13:40:35;13.80;95.70
21612;DHT22;47005;52.292;13.452;2023-04-08T13:43:01;13.90;96.00
21612;DHT22;47005;52.292;13.452;2023-04-08T13:45:27;13.90;95.00
21612;DHT22;47005;52.292;13.452;2023-04-08T13:47:52;13.90;94.30
21612;DHT22;47005;52.292;13.452;2023-04-08T13:50:18;14.00;94.30
21612;DHT22;47005;52.292;13.452;2023-04-08T13:52:43;14.00;93.80
21612;DHT22;47005;52.292;13.452;2023-04-08T13:55:09;14.00;94.60
21612;DHT22;47005;52.292;13.452;2023-04-08T13:57:35;14.10;94.80
21612;DHT22;47005;52.292;13.452;2023-04-08T14:00:01;14.10;94.40
21612;DHT22;47005;52.292;13.452;2023-04-08T14:02:26;14.30;94.70
21612;DHT22;47005;52.292;13.452;2023-04-08T14:04:52;14.50;93.40
21612;DHT22;47005;52.292;13.452;2023-04-08T14:07:18;14.70;92.60
21612;DHT22;47005;52.292;13.452;2023-04-08T14:09:44;14.90;93.90
21612;DHT22;47005;52.292;13.452;2023-04-08T14:12:10;15.00;93.30
21612;DHT22;47005;52.292;13.452;2023-04-08T14:14:35;15.10;93.40
21612;DHT22;47005;52.292;13.452;2023-04-08T14:17:01;15.20;92.50
21612;DHT22;47005;52.292;13.452;2023-04-08T14:19:29;15.30;93.20
21612;DHT22;47005;52.292;13.452;2023-04-08T14:21:55;15.40;92.00
21612;DHT22;47005;52.292;13.452;2023-04-08T14:24:21;15.60;92.60
21612;DHT22;47005;52.292;13.452;2023-04-08T14:26:46;15.90;90.80
21612;DHT22;47005;52.292;13.452;2023-04-08T14:29:12;16.30;92.80
21612;DHT22;47005;52.292;13.452;2023-04-08T14:31:37;16.50;90.50
21612;DHT22;47005;52.292;13.452;2023-04-08T14:34:03;16.70;91.40
21612;DHT22;47005;52.292;13.452;2023-04-08T14:36:29;16.90;91.70
21612;DHT22;47005;52.292;13.452;2023-04-08T14:38:56;17.10;91.20
21612;DHT22;47005;52.292;13.452;2023-04-08T14:41:21;17.10;85.80
21612;DHT22;47005;52.292;13.452;2023-04-08T14:43:48;17.20;88.10
21612;DHT22;47005;52.292;13.452;2023-04-08T14:46:14;17.20;89.30
21612;DHT22;47005;52.292;13.452;2023-04-08T14:48:43;17.10;86.50
21612;DHT22;47005;52.292;13.452;2023-04-08T14:51:09;17.00;86.90
21612;DHT22;47005;52.292;13.452;2023-04-08T14:53:34;16.80;88.10
21612;DHT22;47005;52.292;13.452;2023-04-08T14:56:00;16.70;87.80
21612;DHT22;47005;52.292;13.452;2023-04-08T14:58:26;16.60;89.20
21612;DHT22;47005;52.292;13.452;2023-04-08T15:00:52;16.60;90.00
21612;DHT22;47005;52.292;13.452;2023-04-08T15:03:17;16.60;89.70
21612;DHT22;47005;52.292;13.452;2023-04-08T15:05:43;16.60;87.70
21612;DHT22;47005;52.292;13.452;2023-04-08T15:08:10;16.60;87.90
21612;DHT22;47005;52.292;13.452;2023-04-08T15:10:35;16.60;87.80
21612;DHT22;47005;52.292;13.452;2023-04-08T15:13:01;16.50;86.80
21612;DHT22;47005;52.292;13.452;2023-04-08T15:15:27;16.50;81.70
21612;DHT22;47005;52.292;13.452;2023-04-08T15:17:53;16.40;83.00
21612;DHT22;47005;52.292;13.452;2023-04-08T15:20:18;16.40;83.30
21612;DHT22;47005;52.292;13.452;2023-04-08T15:22:44;16.30;83.80
21612;DHT22;47005;52.292;13.452;2023-04-08T15:25:11;16.30;85.90
21612;DHT22;47005;52.292;13.452;2023-04-08T15:27:37;16.10;86.30
21612;DHT22;47005;52.292;13.452;2023-04-08T15:30:06;16.00;86.00
21612;DHT22;47005;52.292;13.452;2023-04-08T15:32:32;15.90;87.40
21612;DHT22;47005;52.292;13.452;2023-04-08T15:34:59;15.90;87.00
21612;DHT22;47005;52.292;13.452;2023-04-08T15:37:24;15.80;86.10
21612;DHT22;47005;52.292;13.452;2023-04-08T15:39:50;15.80;87.50
21612;DHT22;47005;52.292;13.452;2023-04-08T15:42:20;15.80;88.40
21612;DHT22;47005;52.292;13.452;2023-04-08T15:44:46;15.80;87.00
21612;DHT22;47005;52.292;13.452;2023-04-08T15:47:11;15.80;86.30